Time;durP1;ratioP1;P1;durP2;ratioP2;P2;SDS_P1;SDS_P2;PMS_P1;PMS_P2;Temp;Humidity;BMP_temperature;BMP_pressure;BME280_temperature;BME280_humidity;BME280_pressure;Samples;Min_cycle;Max_cycle;Signal;HPM_P1;HPM_P2
2023/10/16 00:01:07;;;;;;;8.23;2.92;;;4.00;99.90;;;;;;5031343;28;20097;-53
2023/10/16 00:03:32;;;;;;;6.73;2.10;;;3.90;99.90;;;;;;5031157;28;20026;-49
2023/10/16 00:05:58;;;;;;;6.05;2.55;;;3.90;99.90;;;;;;5031099;28;20030;-53
2023/10/16 00:08:24;;;;;;;4.65;2.15;;;3.80;99.90;;;;;;5031000;28;20034;-56
2023/10/16 00:10:58;;;;;;;4.80;2.50;;;3.80;99.90;;;;;;5030841;28;20029;-56
2023/10/16 00:13:27;;;;;;;3.38;1.73;;;3.80;99.90;;;;;;5031262;28;20095;-59
2023/10/16 00:16:02;;;;;;;7.50;2.28;;;3.70;99.90;;;;;;5030719;28;20017;-54
2023/10/16 00:18:33;;;;;;;6.85;2.05;;;3.70;99.90;;;;;;5031016;28;20026;-56
2023/10/16 00:21:00;;;;;;;8.98;2.35;;;3.70;99.90;;;;;;5030703;28;20033;-54
2023/10/16 00:23:25;;;;;;;4.47;1.95;;;3.60;99.90;;;;;;5030814;28;20138;-52
2023/10/16 00:25:51;;;;;;;4.72;2.05;;;3.60;99.90;;;;;;5029275;28;20793;-57
2023/10/16 00:28:21;;;;;;;5.22;2.10;;;3.70;99.90;;;;;;5030895;28;20126;-53
2023/10/16 00:30:47;;;;;;;3.58;1.58;;;3.70;99.90;;;;;;5030813;28;20053;-60
2023/10/16 00:33:14;;;;;;;4.43;1.60;;;3.60;99.90;;;;;;5030474;28;20033;-58
2023/10/16 00:35:45;;;;;;;3.80;1.63;;;3.70;99.90;;;;;;5030729;28;20108;-52
2023/10/16 00:38:14;;;;;;;6.75;1.70;;;3.70;99.90;;;;;;5030393;28;20021;-49
2023/10/16 00:40:44;;;;;;;5.70;2.08;;;3.70;99.90;;;;;;5030595;28;20113;-53
2023/10/16 00:43:12;;;;;;;3.30;1.88;;;3.70;99.90;;;;;;5030471;28;20124;-49
2023/10/16 00:45:55;;;;;;;5.60;1.60;;;3.70;99.90;;;;;;5016726;28;20025;-53
2023/10/16 00:48:21;;;;;;;4.30;1.67;;;3.60;99.90;;;;;;5030359;28;20038;-50
2023/10/16 00:50:48;;;;;;;4.50;1.80;;;3.70;99.90;;;;;;5030507;28;20040;-49
2023/10/16 00:53:16;;;;;;;4.50;2.00;;;3.70;99.90;;;;;;5030821;28;20038;-48
2023/10/16 00:55:42;;;;;;;2.67;1.50;;;3.70;99.90;;;;;;5030598;28;20021;-51
2023/10/16 00:58:08;;;;;;;6.07;1.95;;;3.70;99.90;;;;;;5030606;28;20417;-48
2023/10/16 01:00:37;;;;;;;3.72;2.00;;;3.70;99.90;;;;;;5030245;28;20049;-49
2023/10/16 01:03:04;;;;;;;3.50;1.33;;;3.70;99.90;;;;;;5030389;28;20060;-48
2023/10/16 01:05:33;;;;;;;5.85;2.30;;;3.70;99.90;;;;;;5030203;28;20477;-50
2023/10/16 01:08:02;;;;;;;3.72;1.67;;;3.70;99.90;;;;;;5030292;28;20076;-49
2023/10/16 01:10:32;;;;;;;3.70;1.70;;;3.60;99.90;;;;;;5030353;28;20076;-50
2023/10/16 01:12:58;;;;;;;3.47;1.70;;;3.70;99.90;;;;;;5030377;28;20044;-50
2023/10/16 01:15:25;;;;;;;4.32;1.80;;;3.60;99.90;;;;;;5030309;28;20438;-49
2023/10/16 01:17:51;;;;;;;6.47;2.22;;;3.70;99.90;;;;;;5030029;28;20425;-48
2023/10/16 01:20:20;;;;;;;4.75;1.55;;;3.70;99.90;;;;;;5032906;28;20033;-48
2023/10/16 01:22:47;;;;;;;4.93;1.98;;;3.70;99.90;;;;;;5034094;28;20079;-48
2023/10/16 01:25:14;;;;;;;7.90;2.25;;;3.70;99.90;;;;;;5034076;28;20536;-49
2023/10/16 01:27:42;;;;;;;4.85;1.58;;;3.70;99.90;;;;;;5033927;28;20041;-50
2023/10/16 01:30:09;;;;;;;5.22;2.08;;;3.70;99.90;;;;;;5033996;28;20073;-50
2023/10/16 01:32:35;;;;;;;3.85;1.90;;;3.70;99.90;;;;;;5033582;28;20049;-49
2023/10/16 01:35:01;;;;;;;5.50;1.90;;;3.70;99.90;;;;;;5033859;28;20489;-50
2023/10/16 01:37:27;;;;;;;3.80;1.48;;;3.70;99.90;;;;;;5033832;28;20030;-50
2023/10/16 01:40:12;;;;;;;4.80;1.77;;;3.70;99.90;;;;;;5033561;28;20033;-55
2023/10/16 01:42:38;;;;;;;3.25;1.67;;;3.60;99.90;;;;;;5033645;28;20029;-52
2023/10/16 01:45:04;;;;;;;5.05;1.42;;;3.70;99.90;;;;;;5033408;28;20029;-51
2023/10/16 01:47:33;;;;;;;2.15;1.10;;;3.60;99.90;;;;;;5033725;28;20041;-50
2023/10/16 01:50:01;;;;;;;7.30;1.75;;;3.70;99.90;;;;;;5033562;28;20026;-50
2023/10/16 01:52:26;;;;;;;3.38;1.55;;;3.70;99.90;;;;;;5033640;28;20056;-51
2023/10/16 01:54:53;;;;;;;4.55;1.90;;;3.70;99.90;;;;;;5033419;28;20021;-51
2023/10/16 01:57:20;;;;;;;1.77;1.10;;;3.70;99.90;;;;;;5033260;28;20053;-49
2023/10/16 01:59:49;;;;;;;2.63;1.30;;;3.70;99.90;;;;;;5033367;28;20108;-54
2023/10/16 02:02:17;;;;;;;4.05;1.55;;;3.70;99.90;;;;;;5033311;28;20855;-51
2023/10/16 02:04:43;;;;;;;3.83;1.60;;;3.60;99.90;;;;;;5033320;28;20033;-50
2023/10/16 02:07:09;;;;;;;3.28;1.38;;;3.60;99.90;;;;;;5033173;28;20037;-48
2023/10/16 02:09:39;;;;;;;5.05;1.70;;;3.60;99.90;;;;;;5033238;28;20029;-51
2023/10/16 02:12:10;;;;;;;3.95;1.67;;;3.60;99.90;;;;;;5033130;28;20069;-50
2023/10/16 02:14:40;;;;;;;2.70;1.35;;;3.60;99.90;;;;;;5033402;28;20025;-56
2023/10/16 02:17:14;;;;;;;4.13;1.35;;;3.70;99.90;;;;;;5033202;28;20033;-57
2023/10/16 02:19:44;;;;;;;4.78;1.75;;;3.70;99.90;;;;;;5033136;28;20083;-56
2023/10/16 02:22:16;;;;;;;3.72;1.42;;;3.70;99.90;;;;;;5032974;28;20029;-58
2023/10/16 02:24:41;;;;;;;3.03;1.30;;;3.70;99.90;;;;;;5032785;28;20025;-58
2023/10/16 02:27:12;;;;;;;6.50;1.90;;;3.70;99.90;;;;;;5032745;28;20395;-59
2023/10/16 02:29:45;;;;;;;3.92;1.35;;;3.80;99.90;;;;;;5032674;28;20071;-58
2023/10/16 02:32:12;;;;;;;2.75;1.42;;;3.70;99.90;;;;;;5032585;28;20057;-56
2023/10/16 02:34:38;;;;;;;4.15;1.63;;;3.70;99.90;;;;;;5031255;28;20369;-53
2023/10/16 02:37:06;;;;;;;3.45;1.23;;;3.80;99.90;;;;;;5032178;28;20362;-58
2023/10/16 02:39:35;;;;;;;3.88;1.60;;;3.70;99.90;;;;;;5032454;28;20022;-56
2023/10/16 02:42:08;;;;;;;3.88;1.52;;;3.70;99.90;;;;;;5032659;28;20017;-54
2023/10/16 02:44:38;;;;;;;6.40;1.67;;;3.70;99.90;;;;;;5032091;28;20025;-57
2023/10/16 02:47:06;;;;;;;3.97;1.48;;;3.70;99.90;;;;;;5030642;28;20045;-56
2023/10/16 02:49:33;;;;;;;2.92;1.38;;;3.60;99.90;;;;;;5030430;28;20477;-55
2023/10/16 02:51:59;;;;;;;3.25;1.48;;;3.60;99.90;;;;;;5032371;28;20030;-53
2023/10/16 02:54:24;;;;;;;5.75;1.67;;;3.50;99.90;;;;;;5032161;28;20035;-56
2023/10/16 02:56:56;;;;;;;6.00;1.65;;;3.50;99.90;;;;;;5029636;28;20136;-57
2023/10/16 02:59:25;;;;;;;2.75;1.33;;;3.50;99.90;;;;;;5029179;28;20401;-58
2023/10/16 03:01:53;;;;;;;3.22;1.10;;;3.60;99.90;;;;;;5032184;28;20021;-58
2023/10/16 03:04:23;;;;;;;3.65;1.70;;;3.50;99.90;;;;;;5032078;28;20025;-58
2023/10/16 03:06:53;;;;;;;2.78;1.40;;;3.50;99.90;;;;;;5031797;28;20032;-58
2023/10/16 03:09:28;;;;;;;2.65;1.30;;;3.50;99.90;;;;;;5032307;28;20112;-55
2023/10/16 03:12:10;;;;;;;3.88;1.50;;;3.50;99.90;;;;;;5031983;28;20036;-58
2023/10/16 03:17:25;;;;;;;2.20;1.42;;;3.50;99.90;;;;;;5032207;28;20028;-56
2023/10/16 03:19:54;;;;;;;6.00;1.23;;;3.50;99.90;;;;;;5030355;28;20396;-51
2023/10/16 03:22:21;;;;;;;3.70;1.85;;;3.50;99.90;;;;;;5031870;28;20139;-55
2023/10/16 03:24:47;;;;;;;2.95;1.13;;;3.60;99.90;;;;;;5031597;28;20029;-59
2023/10/16 03:27:27;;;;;;;4.25;1.33;;;3.60;99.90;;;;;;5031645;28;20029;-54
2023/10/16 03:29:54;;;;;;;2.58;1.30;;;3.60;99.90;;;;;;5031646;28;20045;-50
2023/10/16 03:32:20;;;;;;;1.95;1.00;;;3.70;99.90;;;;;;5031454;28;20045;-49
2023/10/16 03:34:45;;;;;;;3.20;1.20;;;3.70;99.90;;;;;;5031592;28;20029;-55
2023/10/16 03:37:13;;;;;;;3.38;1.40;;;3.70;99.90;;;;;;5031368;28;20104;-58
2023/10/16 03:39:39;;;;;;;2.13;1.13;;;3.70;99.90;;;;;;5031366;28;20037;-51
2023/10/16 03:42:11;;;;;;;1.65;0.98;;;3.80;99.90;;;;;;5030723;28;20112;-62
2023/10/16 03:44:38;;;;;;;5.35;1.30;;;3.80;99.90;;;;;;5031535;28;20400;-55
2023/10/16 03:47:06;;;;;;;2.22;1.05;;;3.80;99.90;;;;;;5031156;28;20088;-56
2023/10/16 03:49:31;;;;;;;2.13;1.00;;;3.80;99.90;;;;;;5031372;28;20021;-57
2023/10/16 03:51:57;;;;;;;4.53;1.65;;;3.80;99.90;;;;;;5031158;28;20024;-58
2023/10/16 03:54:35;;;;;;;2.55;1.20;;;3.80;99.90;;;;;;5031216;28;20022;-54
2023/10/16 03:57:01;;;;;;;2.45;1.17;;;3.90;99.90;;;;;;5031248;28;20059;-52
2023/10/16 03:59:29;;;;;;;1.98;1.02;;;3.80;99.90;;;;;;5030957;28;20357;-57
2023/10/16 04:01:56;;;;;;;2.90;1.23;;;3.80;99.90;;;;;;5031218;28;20029;-56
2023/10/16 04:04:26;;;;;;;2.38;1.25;;;3.80;99.90;;;;;;5031006;28;20105;-57
2023/10/16 04:06:56;;;;;;;3.22;1.35;;;3.90;99.90;;;;;;5031264;28;20038;-55
2023/10/16 04:09:32;;;;;;;8.18;1.45;;;3.90;99.90;;;;;;5031038;28;20128;-53
2023/10/16 04:12:02;;;;;;;4.40;1.20;;;3.80;99.90;;;;;;5031013;28;20082;-52
2023/10/16 04:14:50;;;;;;;3.85;1.05;;;3.90;99.90;;;;;;5030809;28;20488;-52
2023/10/16 04:17:16;;;;;;;2.90;1.23;;;3.90;99.90;;;;;;5030918;28;20075;-53
2023/10/16 04:19:59;;;;;;;1.27;0.77;;;3.90;99.90;;;;;;5030730;28;20407;-58
2023/10/16 04:22:25;;;;;;;3.05;1.10;;;3.90;99.90;;;;;;5030850;28;20071;-50
2023/10/16 04:24:54;;;;;;;1.65;0.80;;;3.90;99.90;;;;;;5030774;28;20429;-57
2023/10/16 04:29:49;;;;;;;6.25;1.15;;;4.00;99.90;;;;;;5030864;28;20488;-56
2023/10/16 04:34:53;;;;;;;4.13;1.55;;;4.10;99.90;;;;;;5030601;28;20021;-51
2023/10/16 04:47:48;;;;;;;1.58;0.95;;;4.20;99.90;;;;;;5030529;28;20033;-58
2023/10/16 04:50:27;;;;;;;2.30;1.17;;;4.30;99.90;;;;;;5030284;28;20017;-57
2023/10/16 05:17:58;;;;;;;3.17;0.70;;;4.60;99.90;;;;;;5034237;28;20040;-56
2023/10/16 06:14:47;;;;;;;2.40;0.98;;;5.00;99.90;;;;;;5033347;28;20032;-52
2023/10/16 06:17:15;;;;;;;3.70;1.25;;;5.00;99.90;;;;;;5033201;28;20156;-53
2023/10/16 06:19:42;;;;;;;4.57;1.40;;;5.00;99.90;;;;;;5032925;28;20037;-54
2023/10/16 06:22:09;;;;;;;3.20;0.90;;;5.10;99.90;;;;;;5033002;28;20125;-53
2023/10/16 06:24:52;;;;;;;4.25;0.90;;;5.10;99.90;;;;;;5033011;28;20025;-54
2023/10/16 06:27:20;;;;;;;1.27;0.88;;;5.20;99.90;;;;;;5032764;28;20090;-53
2023/10/16 06:29:49;;;;;;;2.40;1.23;;;5.20;99.90;;;;;;5032734;28;20029;-57
2023/10/16 06:32:24;;;;;;;3.42;1.00;;;5.30;99.90;;;;;;5032742;28;20063;-58
2023/10/16 06:34:57;;;;;;;4.25;1.15;;;5.30;99.90;;;;;;5032606;28;20487;-51
2023/10/16 06:37:23;;;;;;;3.63;0.98;;;5.40;99.90;;;;;;5032635;28;20021;-53
2023/10/16 06:39:54;;;;;;;2.35;1.05;;;5.40;99.90;;;;;;5032904;28;20036;-51
2023/10/16 06:42:23;;;;;;;2.70;0.90;;;5.40;99.90;;;;;;5032725;28;20121;-58
2023/10/16 06:44:53;;;;;;;4.47;1.40;;;5.50;99.90;;;;;;5032660;28;20156;-53
2023/10/16 06:47:23;;;;;;;2.88;1.17;;;5.50;99.90;;;;;;5032430;28;20124;-53
2023/10/16 06:49:50;;;;;;;4.05;0.90;;;5.50;99.90;;;;;;5032659;28;20032;-54
2023/10/16 06:52:17;;;;;;;5.40;1.13;;;5.50;99.90;;;;;;5032280;28;20455;-57
2023/10/16 06:54:44;;;;;;;2.25;0.82;;;5.60;99.90;;;;;;5032570;28;20104;-57
2023/10/16 06:57:13;;;;;;;2.45;0.82;;;5.70;99.90;;;;;;5032307;28;20160;-56
2023/10/16 06:59:40;;;;;;;4.85;1.60;;;5.70;99.90;;;;;;5032226;28;20480;-52
2023/10/16 07:02:09;;;;;;;4.38;1.15;;;5.80;99.90;;;;;;5032378;28;20041;-50
2023/10/16 07:04:40;;;;;;;4.40;0.93;;;5.90;99.90;;;;;;5032165;28;20076;-54
2023/10/16 07:07:14;;;;;;;1.30;0.80;;;6.00;99.90;;;;;;5032058;28;20095;-56
2023/10/16 07:09:54;;;;;;;3.28;0.90;;;6.10;99.90;;;;;;5031901;28;20029;-53
2023/10/16 07:12:22;;;;;;;;;;;6.10;99.90;;;;;;5032463;28;20484;-56
2023/10/16 07:14:55;;;;;;;3.95;1.33;;;6.30;99.90;;;;;;5031750;28;19905;-58
2023/10/16 07:17:30;;;;;;;2.67;0.77;;;6.40;99.90;;;;;;5031056;28;20022;-56
2023/10/16 07:19:59;;;;;;;4.25;1.30;;;6.50;99.90;;;;;;5031725;28;20133;-55
2023/10/16 07:22:31;;;;;;;4.00;1.08;;;6.60;99.90;;;;;;5031706;28;20481;-56
2023/10/16 07:24:57;;;;;;;3.35;1.60;;;6.60;99.90;;;;;;5031563;28;20029;-55
2023/10/16 07:27:23;;;;;;;2.08;1.08;;;6.70;99.90;;;;;;5031674;28;20125;-57
2023/10/16 07:29:49;;;;;;;3.03;1.20;;;6.80;99.90;;;;;;5031546;28;20121;-54
2023/10/16 07:32:15;;;;;;;3.65;1.20;;;6.90;99.90;;;;;;5031481;28;20567;-53
2023/10/16 07:34:40;;;;;;;5.50;1.58;;;6.80;99.90;;;;;;5031827;28;20022;-56
2023/10/16 07:37:07;;;;;;;2.22;1.00;;;7.00;99.90;;;;;;5031353;28;20095;-54
2023/10/16 07:39:34;;;;;;;1.75;0.85;;;7.00;99.90;;;;;;5031781;28;20028;-54
2023/10/16 07:42:02;;;;;;;4.00;1.52;;;7.10;99.90;;;;;;5031428;28;20036;-54
2023/10/16 07:44:28;;;;;;;3.80;1.05;;;7.20;99.90;;;;;;5031552;28;20049;-57
2023/10/16 07:46:54;;;;;;;1.85;0.90;;;7.30;99.90;;;;;;5031168;28;20064;-55
2023/10/16 07:49:25;;;;;;;5.18;1.10;;;7.40;99.90;;;;;;5031239;28;20036;-54
2023/10/16 07:51:52;;;;;;;3.35;1.52;;;7.50;99.90;;;;;;5031439;28;20065;-57
2023/10/16 07:54:20;;;;;;;1.98;1.00;;;7.50;99.90;;;;;;5031574;28;20033;-57
2023/10/16 07:56:49;;;;;;;2.35;0.95;;;7.60;99.90;;;;;;5031242;28;20419;-54
2023/10/16 07:59:18;;;;;;;10.82;2.40;;;7.70;99.90;;;;;;5031114;28;20029;-56
2023/10/16 08:01:57;;;;;;;54.83;15.10;;;7.90;99.90;;;;;;5031254;28;20037;-55
2023/10/16 08:06:55;;;;;;;76.05;19.70;;;8.10;99.90;;;;;;5031244;28;20168;-57
2023/10/16 08:11:58;;;;;;;53.20;15.60;;;8.30;99.90;;;;;;5031064;28;20025;-55
2023/10/16 08:14:30;;;;;;;50.75;12.77;;;8.40;99.90;;;;;;5030795;28;20267;-55
2023/10/16 08:17:03;;;;;;;46.90;12.20;;;8.50;99.90;;;;;;5030837;28;20119;-55
2023/10/16 08:19:34;;;;;;;43.45;13.40;;;8.60;99.90;;;;;;5030998;28;20021;-58
2023/10/16 08:22:08;;;;;;;33.45;10.63;;;8.60;99.90;;;;;;5030707;28;20018;-57
2023/10/16 08:24:34;;;;;;;30.85;9.07;;;8.70;99.90;;;;;;5030795;28;20057;-54
2023/10/16 08:30:17;;;;;;;18.08;4.82;;;8.90;99.90;;;;;;5030466;28;20036;-55
2023/10/16 08:35:20;;;;;;;12.10;3.85;;;9.00;99.90;;;;;;5030493;28;20030;-56
2023/10/16 08:37:56;;;;;;;11.25;4.28;;;9.20;99.90;;;;;;5030951;28;20499;-56
2023/10/16 08:40:32;;;;;;;14.80;4.18;;;9.30;99.90;;;;;;5030597;28;20101;-54
2023/10/16 08:43:00;;;;;;;9.60;3.70;;;9.50;99.90;;;;;;5030552;28;20164;-54
2023/10/16 08:45:28;;;;;;;13.20;4.10;;;9.60;99.90;;;;;;5030380;28;20104;-54
2023/10/16 08:47:56;;;;;;;13.25;4.28;;;9.80;99.90;;;;;;5030463;28;20109;-55
2023/10/16 08:50:40;;;;;;;17.80;4.30;;;10.10;99.90;;;;;;5030600;28;20041;-55
2023/10/16 08:53:07;;;;;;;10.73;4.07;;;10.20;99.90;;;;;;5030439;28;20037;-56
2023/10/16 08:55:34;;;;;;;12.75;4.20;;;10.40;99.90;;;;;;5030561;28;20034;-53
2023/10/16 08:58:04;;;;;;;10.02;3.55;;;10.50;99.90;;;;;;5030421;28;20037;-56
2023/10/16 09:00:31;;;;;;;11.05;3.75;;;10.60;99.90;;;;;;5030569;28;20103;-53
2023/10/16 09:03:00;;;;;;;16.45;4.10;;;10.70;99.90;;;;;;5030184;28;20091;-57
2023/10/16 09:05:26;;;;;;;12.88;4.10;;;11.00;99.90;;;;;;5030440;28;20480;-55
2023/10/16 09:07:51;;;;;;;7.32;2.78;;;11.00;99.90;;;;;;5030218;28;20139;-56
2023/10/16 09:10:21;;;;;;;11.23;2.60;;;11.00;99.90;;;;;;5030426;28;20025;-57
2023/10/16 09:13:12;;;;;;;14.70;3.90;;;11.30;99.90;;;;;;5030214;28;20040;-56
2023/10/16 09:15:45;;;;;;;8.77;2.75;;;11.60;99.90;;;;;;5030540;28;20060;-56
2023/10/16 09:18:16;;;;;;;7.85;3.17;;;12.00;99.90;;;;;;5030167;28;20428;-58
2023/10/16 09:20:42;;;;;;;4.65;1.70;;;12.00;99.90;;;;;;5030421;28;20021;-57
2023/10/16 09:23:13;;;;;;;7.30;2.30;;;12.20;99.90;;;;;;5030117;28;20051;-56
2023/10/16 09:25:44;;;;;;;4.53;1.27;;;12.60;99.90;;;;;;5030309;28;20030;-56
2023/10/16 09:28:16;;;;;;;3.80;2.40;;;13.10;99.90;;;;;;5029957;28;20463;-56
2023/10/16 09:30:44;;;;;;;4.05;1.30;;;13.30;99.90;;;;;;5030322;28;20484;-53
2023/10/16 09:33:10;;;;;;;2.08;0.85;;;13.30;99.90;;;;;;5030135;28;20049;-56
2023/10/16 09:35:43;;;;;;;3.05;1.10;;;13.20;99.90;;;;;;5030237;28;20068;-56
2023/10/16 09:38:19;;;;;;;3.75;1.10;;;12.90;99.90;;;;;;5028813;28;20105;-54
2023/10/16 09:41:31;;;;;;;6.63;1.30;;;12.40;99.90;;;;;;5031785;28;20029;-55
2023/10/16 09:43:56;;;;;;;1.88;0.82;;;12.30;99.90;;;;;;5033567;28;20056;-54
2023/10/16 09:49:09;;;;;;;2.65;1.20;;;12.60;99.90;;;;;;5033742;28;20033;-53
2023/10/16 09:51:35;;;;;;;3.25;1.15;;;12.60;99.90;;;;;;5033657;28;20033;-56
2023/10/16 09:54:04;;;;;;;4.07;1.15;;;13.00;99.90;;;;;;5033498;28;20026;-54
2023/10/16 09:56:35;;;;;;;2.13;1.00;;;13.50;99.90;;;;;;5032010;28;20033;-55
2023/10/16 09:59:08;;;;;;;2.80;1.08;;;14.10;99.90;;;;;;5033622;28;20026;-54
2023/10/16 10:01:39;;;;;;;2.55;1.30;;;14.50;99.90;;;;;;5033412;28;20027;-55
2023/10/16 10:04:07;;;;;;;2.42;1.10;;;14.90;99.90;;;;;;5033558;28;20131;-54
2023/10/16 10:06:39;;;;;;;2.75;1.17;;;15.00;99.90;;;;;;5033304;28;20014;-55
2023/10/16 10:12:20;;;;;;;5.30;1.15;;;15.50;99.90;;;;;;5032614;28;20036;-58
2023/10/16 10:15:15;;;;;;;5.20;1.23;;;15.90;99.90;;;;;;5030485;28;20041;-65
2023/10/16 10:17:43;;;;;;;6.40;1.50;;;16.20;99.90;;;;;;5019802;28;20048;-59
2023/10/16 10:20:17;;;;;;;1.20;0.77;;;17.00;99.90;;;;;;5034446;28;20025;-61
2023/10/16 10:22:45;;;;;;;2.78;1.10;;;17.40;99.90;;;;;;5032709;28;20484;-60
2023/10/16 10:25:24;;;;;;;1.48;0.77;;;17.40;99.90;;;;;;5032871;28;20048;-62
2023/10/16 10:27:53;;;;;;;;;;;17.20;99.90;;;;;;5032951;28;20124;-61
2023/10/16 10:30:25;;;;;;;2.83;1.10;;;17.30;99.90;;;;;;5032704;28;20407;-61
2023/10/16 10:32:55;;;;;;;3.97;1.10;;;16.90;99.90;;;;;;5032380;28;20045;-59
2023/10/16 10:35:28;;;;;;;2.45;0.90;;;17.10;99.90;;;;;;5032622;28;20076;-59
2023/10/16 10:38:24;;;;;;;3.28;1.20;;;17.30;99.90;;;;;;5032486;28;20029;-59
2023/10/16 10:41:11;;;;;;;3.47;1.10;;;17.50;99.90;;;;;;5029957;28;20029;-61
2023/10/16 10:43:46;;;;;;;1.50;0.82;;;17.20;99.90;;;;;;5032431;28;20476;-58
2023/10/16 10:46:13;;;;;;;2.97;1.05;;;16.80;99.90;;;;;;5031748;28;20116;-54
2023/10/16 10:48:41;;;;;;;1.90;0.98;;;16.60;99.90;;;;;;5032370;28;20037;-60
2023/10/16 10:51:13;;;;;;;3.60;0.98;;;16.50;99.90;;;;;;5032198;28;20021;-59
2023/10/16 10:53:55;;;;;;;4.85;1.35;;;16.50;99.90;;;;;;5023477;28;20075;-59
2023/10/16 10:56:21;;;;;;;4.18;1.15;;;16.30;99.90;;;;;;5032199;28;20498;-59
2023/10/16 10:58:47;;;;;;;4.72;1.52;;;16.30;99.90;;;;;;5032105;28;20026;-63
2023/10/16 11:01:28;;;;;;;2.83;1.20;;;16.20;99.90;;;;;;5031528;28;20112;-61
2023/10/16 11:03:55;;;;;;;5.72;1.77;;;16.20;99.90;;;;;;5032188;28;20024;-53
2023/10/16 11:06:38;;;;;;;2.65;1.30;;;16.40;99.90;;;;;;5032063;28;20504;-52
2023/10/16 11:09:11;;;;;;;8.20;3.05;;;17.10;99.90;;;;;;5024701;28;20088;-53
2023/10/16 11:11:44;;;;;;;6.28;2.13;;;17.30;99.90;;;;;;5031736;28;20021;-55
2023/10/16 11:14:12;;;;;;;4.00;1.45;;;17.90;99.90;;;;;;5032159;28;20038;-58
2023/10/16 11:16:45;;;;;;;8.13;2.95;;;18.50;99.90;;;;;;5031995;28;20083;-60
2023/10/16 11:19:11;;;;;;;8.93;3.60;;;18.30;99.90;;;;;;5023977;28;20026;-51
2023/10/16 11:21:43;;;;;;;4.20;1.80;;;18.30;99.90;;;;;;5031698;28;20029;-55
2023/10/16 11:24:10;;;;;;;5.13;2.40;;;18.00;98.90;;;;;;5031742;28;20080;-61
2023/10/16 11:26:38;;;;;;;2.42;0.85;;;17.80;99.90;;;;;;5031158;28;20021;-59
2023/10/16 11:29:04;;;;;;;1.05;0.47;;;17.30;99.30;;;;;;5030209;28;20071;-56
2023/10/16 11:31:30;;;;;;;1.55;0.73;;;17.00;99.50;;;;;;5031055;28;20102;-55
2023/10/16 11:34:03;;;;;;;2.13;0.57;;;16.60;99.90;;;;;;5030837;28;20108;-55
2023/10/16 11:36:29;;;;;;;1.65;0.60;;;17.00;99.90;;;;;;5025678;28;20472;-57
2023/10/16 11:39:03;;;;;;;2.53;0.95;;;17.50;99.90;;;;;;5031527;28;20026;-57
2023/10/16 11:41:30;;;;;;;2.45;1.17;;;17.70;99.10;;;;;;5031434;28;20021;-57
2023/10/16 11:43:56;;;;;;;3.90;1.50;;;18.70;99.90;;;;;;5030832;28;20548;-57
2023/10/16 11:46:29;;;;;;;2.78;0.88;;;19.30;98.40;;;;;;5029376;28;20049;-58
2023/10/16 11:49:17;;;;;;;6.75;1.25;;;19.00;96.60;;;;;;5029642;28;20037;-54
2023/10/16 11:51:47;;;;;;;3.38;1.10;;;18.40;97.20;;;;;;5029188;28;20384;-54
2023/10/16 11:54:23;;;;;;;6.10;1.08;;;17.80;96.80;;;;;;5029290;28;20599;-52
2023/10/16 11:56:56;;;;;;;1.58;0.52;;;17.00;97.10;;;;;;5029211;28;20033;-59
2023/10/16 11:59:22;;;;;;;2.75;0.60;;;15.80;98.30;;;;;;5029553;28;20041;-54
2023/10/16 12:01:52;;;;;;;0.82;0.40;;;15.20;99.70;;;;;;5031164;28;20428;-52
2023/10/16 12:04:22;;;;;;;2.13;0.60;;;15.20;99.90;;;;;;5030216;28;20026;-61
2023/10/16 12:06:48;;;;;;;2.97;0.63;;;14.90;99.90;;;;;;5030822;28;20036;-58
2023/10/16 12:09:20;;;;;;;2.05;0.50;;;14.90;99.90;;;;;;5031134;28;20033;-49
2023/10/16 12:11:47;;;;;;;2.50;0.70;;;14.90;99.90;;;;;;5020489;28;20374;-53
2023/10/16 12:14:13;;;;;;;2.45;1.35;;;15.00;99.90;;;;;;5030905;28;20051;-55
2023/10/16 12:16:41;;;;;;;6.32;2.55;;;14.90;99.90;;;;;;5030762;28;20027;-56
2023/10/16 12:19:09;;;;;;;3.15;1.30;;;15.00;99.90;;;;;;5030886;28;20021;-54
2023/10/16 12:21:35;;;;;;;1.05;0.57;;;15.10;99.90;;;;;;5028495;28;20028;-57
2023/10/16 12:24:01;;;;;;;1.80;0.73;;;15.00;99.90;;;;;;5015946;28;20025;-55
2023/10/16 12:26:27;;;;;;;2.42;0.88;;;14.80;99.90;;;;;;5027141;28;20353;-60
2023/10/16 12:28:53;;;;;;;2.08;0.85;;;14.70;99.90;;;;;;5030573;28;20042;-53
2023/10/16 12:31:19;;;;;;;7.13;2.72;;;14.60;99.90;;;;;;5030120;28;20064;-60
2023/10/16 12:33:46;;;;;;;7.40;2.50;;;14.70;99.90;;;;;;5029303;28;20036;-61
2023/10/16 12:36:11;;;;;;;2.33;0.75;;;14.60;99.90;;;;;;5023670;28;20025;-58
2023/10/16 12:38:37;;;;;;;0.80;0.38;;;14.50;99.90;;;;;;5030281;28;20083;-60
2023/10/16 12:41:05;;;;;;;2.08;1.02;;;14.50;99.90;;;;;;5030586;28;20049;-59
2023/10/16 12:43:31;;;;;;;2.40;0.52;;;14.50;99.90;;;;;;5030493;28;20085;-60
2023/10/16 12:45:57;;;;;;;0.43;0.38;;;14.60;99.90;;;;;;5030447;28;20766;-57
2023/10/16 12:48:30;;;;;;;1.25;0.50;;;14.80;99.90;;;;;;5030503;28;20084;-49
2023/10/16 12:51:07;;;;;;;1.20;0.52;;;14.80;99.90;;;;;;5030419;28;20037;-60
2023/10/16 12:53:33;;;;;;;2.75;0.77;;;14.80;99.90;;;;;;5030224;28;20113;-51
2023/10/16 12:55:58;;;;;;;2.83;0.98;;;14.70;99.90;;;;;;5030571;28;20061;-57
2023/10/16 12:58:28;;;;;;;1.00;0.60;;;14.60;99.90;;;;;;5030546;28;20029;-54
2023/10/16 13:00:57;;;;;;;1.50;0.60;;;14.60;99.90;;;;;;5030375;28;20105;-52
2023/10/16 13:03:24;;;;;;;2.10;0.50;;;14.40;99.90;;;;;;5030495;28;20033;-53
2023/10/16 13:05:52;;;;;;;1.58;0.40;;;14.40;99.90;;;;;;5029952;28;20468;-54
2023/10/16 13:08:20;;;;;;;0.40;0.30;;;14.20;99.90;;;;;;5030072;28;20082;-54
2023/10/16 13:10:48;;;;;;;2.35;0.60;;;14.10;99.90;;;;;;5030267;28;20097;-54
2023/10/16 13:13:21;;;;;;;0.70;0.40;;;13.90;99.90;;;;;;5030325;28;20037;-61
2023/10/16 13:15:51;;;;;;;0.63;0.40;;;14.00;99.90;;;;;;5031868;28;20033;-52
2023/10/16 13:18:24;;;;;;;2.55;0.40;;;14.10;99.90;;;;;;5033944;28;20053;-60
2023/10/16 13:20:54;;;;;;;5.15;1.25;;;14.20;99.90;;;;;;5033665;28;20022;-58
2023/10/16 13:23:19;;;;;;;5.65;1.83;;;14.20;99.90;;;;;;5033961;28;20172;-52
2023/10/16 13:25:45;;;;;;;7.45;2.55;;;14.30;99.90;;;;;;5033892;28;20100;-58
2023/10/16 13:28:11;;;;;;;2.85;0.98;;;14.10;99.90;;;;;;5033396;28;20056;-56
2023/10/16 13:30:36;;;;;;;3.65;1.48;;;14.00;99.90;;;;;;5033876;28;20127;-59
2023/10/16 13:33:08;;;;;;;1.45;0.68;;;13.90;99.90;;;;;;5033302;28;20049;-58
2023/10/16 13:35:38;;;;;;;1.65;0.60;;;13.80;99.90;;;;;;5026791;28;20033;-56
2023/10/16 13:38:04;;;;;;;0.88;0.40;;;13.70;99.90;;;;;;5033757;28;20025;-49
2023/10/16 13:40:32;;;;;;;1.42;0.68;;;13.70;99.90;;;;;;5033734;28;20203;-50
2023/10/16 13:43:00;;;;;;;3.10;0.88;;;13.80;99.90;;;;;;5033354;28;20025;-53
2023/10/16 13:45:27;;;;;;;2.75;0.90;;;13.80;99.90;;;;;;5033531;28;20049;-60
2023/10/16 13:47:54;;;;;;;2.08;0.60;;;13.60;99.90;;;;;;5033422;28;20032;-60
2023/10/16 13:50:30;;;;;;;1.13;0.60;;;13.60;99.90;;;;;;5033529;28;20022;-54
2023/10/16 13:52:56;;;;;;;1.98;0.55;;;13.60;99.90;;;;;;5033528;28;20021;-54
2023/10/16 13:55:23;;;;;;;1.73;0.63;;;13.70;99.90;;;;;;5033320;28;20104;-54
2023/10/16 13:57:50;;;;;;;1.33;0.70;;;13.70;99.90;;;;;;5033342;28;20026;-58
2023/10/16 14:05:47;;;;;;;3.15;1.60;;;13.60;99.90;;;;;;5033422;28;20029;-60
2023/10/16 14:08:17;;;;;;;2.85;1.10;;;13.50;99.90;;;;;;5033124;28;20037;-60
2023/10/16 14:10:49;;;;;;;2.30;1.20;;;13.40;99.90;;;;;;5032983;28;20550;-60
2023/10/16 14:13:19;;;;;;;2.83;0.60;;;13.40;99.90;;;;;;5033076;28;20109;-61
2023/10/16 14:15:46;;;;;;;2.88;1.33;;;13.40;99.90;;;;;;5033129;28;20036;-54
2023/10/16 14:18:16;;;;;;;4.20;1.50;;;13.40;99.90;;;;;;5032835;28;20032;-61
2023/10/16 14:20:45;;;;;;;5.05;1.25;;;13.40;99.90;;;;;;5033164;28;20121;-60
2023/10/16 14:23:12;;;;;;;3.50;1.10;;;13.50;99.90;;;;;;5029760;28;20489;-59
2023/10/16 14:25:57;;;;;;;1.45;0.80;;;13.50;99.90;;;;;;5032863;28;20083;-59
2023/10/16 14:28:33;;;;;;;3.15;1.10;;;13.40;99.90;;;;;;5030668;28;20032;-61
2023/10/16 14:31:04;;;;;;;8.57;2.65;;;13.40;99.90;;;;;;5032824;28;20034;-61
2023/10/16 14:33:31;;;;;;;5.22;1.83;;;13.30;99.90;;;;;;5032579;28;20049;-59
2023/10/16 14:36:02;;;;;;;5.82;2.17;;;13.30;99.90;;;;;;5032743;28;20020;-60
2023/10/16 14:38:28;;;;;;;2.33;0.77;;;13.30;99.90;;;;;;5032447;28;20103;-58
2023/10/16 14:40:55;;;;;;;1.35;0.63;;;13.20;99.90;;;;;;5032612;28;20014;-62
2023/10/16 14:43:23;;;;;;;0.82;0.70;;;13.20;99.90;;;;;;5032540;28;20108;-59
2023/10/16 14:45:53;;;;;;;3.72;1.05;;;13.20;99.90;;;;;;5032477;28;20465;-62
2023/10/16 14:48:23;;;;;;;1.95;1.30;;;13.10;99.90;;;;;;5032174;28;20052;-61
2023/10/16 14:50:50;;;;;;;4.40;1.10;;;13.10;99.90;;;;;;5032494;28;20468;-61
2023/10/16 14:53:19;;;;;;;5.85;1.38;;;13.20;99.90;;;;;;5032454;28;20071;-60
2023/10/16 14:55:47;;;;;;;4.35;1.50;;;13.30;99.90;;;;;;5032085;28;20476;-62
2023/10/16 14:58:13;;;;;;;3.27;1.50;;;13.30;99.90;;;;;;5032112;28;20064;-52
2023/10/16 15:00:44;;;;;;;5.63;2.05;;;13.20;99.90;;;;;;5032303;28;20068;-57
2023/10/16 15:03:10;;;;;;;4.45;1.52;;;13.30;99.90;;;;;;5032330;28;20500;-60
2023/10/16 15:05:46;;;;;;;3.92;1.20;;;13.20;99.90;;;;;;5032356;28;20105;-59